Date,TemperatureHighF,TemperatureAvgF,TemperatureLowF,DewpointHighF,DewpointAvgF,DewpointLowF,HumidityHigh,HumidityAvg,HumidityLow,PressureMaxIn,PressureMinIn,WindSpeedMaxMPH,WindSpeedAvgMPH,GustSpeedMaxMPH,PrecipitationSumIn
2013-1-2,37.7,34.2,31.9,25.3,23.7,22.1,69,65,60,30.32,30.20,18,14,26,0.00
2013-1-3,39.3,34.1,30.9,33.5,24.3,21.3,80,67,58,30.26,30.13,19,13,26,0.00
2013-1-4,42.5,38.7,35.2,39.0,33.8,27.1,90,83,72,30.35,30.17,18,7,25,0.04
2013-1-5,36.8,34.8,33.6,32.8,29.0,26.5,90,79,71,30.25,30.16,19,10,23,0.03
2013-1-6,42.3,37.6,33.3,38.2,31.6,27.0,87,79,73,30.25,30.07,9,2,15,0.25
2013-1-7,49.4,45.4,42.2,45.3,38.6,33.7,90,77,69,30.20,30.00,11,6,18,0.15
2013-1-8,52.1,48.3,43.8,48.2,42.8,35.2,90,82,70,30.20,29.90,14,7,20,0.12
2013-1-9,50.1,41.3,34.0,45.0,37.1,27.2,91,85,76,29.97,29.69,13,4,17,0.18
2013-1-10,36.6,34.1,32.3,33.9,28.0,25.3,90,78,74,30.10,29.97,4,1,6,0.14
2013-1-11,35.8,31.3,28.0,31.5,25.9,22.0,91,80,75,30.30,30.10,5,1,6,0.01
2013-1-12,33.6,28.2,23.8,29.5,23.9,19.8,91,84,74,30.42,30.30,4,0,5,0.00
2013-1-13,28.6,25.9,22.9,26.3,22.6,19.2,91,87,80,30.51,30.41,2,0,5,0.00
2013-1-14,31.0,28.2,25.8,27.3,24.8,23.2,91,87,76,30.57,30.50,4,1,5,0.00
2013-1-15,36.2,32.8,31.0,33.8,27.8,24.3,91,82,75,30.67,30.57,5,1,6,0.09
2013-1-16,33.5,31.8,30.9,27.9,25.7,24.4,83,78,76,30.66,30.49,2,0,3,0.00
2013-1-17,43.7,34.5,29.2,36.3,28.8,23.3,91,79,69,30.49,30.31,6,1,7,0.00
2013-1-18,44.1,34.0,27.3,35.8,29.5,23.0,91,84,71,30.32,30.25,3,1,4,0.00
2013-1-19,42.4,32.4,24.7,35.8,28.0,20.3,91,84,75,30.34,30.26,2,0,3,0.01
2013-1-21,42.3,35.2,28.8,31.3,26.0,24.3,86,69,54,30.24,30.13,16,5,18,0.00
2013-1-22,32.2,30.8,29.1,24.5,23.6,22.7,78,74,70,30.16,30.09,13,6,21,0.00
2013-1-24,40.8,38.8,35.0,37.0,34.1,27.9,91,83,72,30.19,30.09,9,2,16,0.20
2013-1-25,44.9,44.8,44.8,36.3,36.3,36.3,72,72,72,30.07,30.07,1,1,2,0.17
2013-1-28,41.6,40.6,38.2,35.8,33.2,31.1,81,75,73,30.20,30.13,5,2,9,0.47
2013-1-29,44.4,42.7,40.7,37.8,35.7,33.1,85,76,73,30.44,30.20,6,3,8,0.22
2013-1-30,46.7,43.0,41.1,43.5,37.2,32.8,90,80,72,30.46,30.40,8,5,11,0.04
2013-1-31,49.9,48.3,47.0,45.3,44.6,44.2,90,87,83,30.35,30.31,4,2,5,0.00